sensor_id;sensor_type;location;lat;lon;timestamp;pressure;altitude;pressure_sealevel;temperature;humidity
71559;BME280;59382;43.852;25.952;2023-08-17T00:00:11;101249.13;;;27.39;45.88
71559;BME280;59382;43.852;25.952;2023-08-17T00:02:42;101263.28;;;27.37;46.22
71559;BME280;59382;43.852;25.952;2023-08-17T00:05:07;101243.19;;;27.32;46.12
71559;BME280;59382;43.852;25.952;2023-08-17T00:07:33;101246.59;;;27.29;46.01
71559;BME280;59382;43.852;25.952;2023-08-17T00:09:59;101236.19;;;27.21;46.25
71559;BME280;59382;43.852;25.952;2023-08-17T00:12:24;101239.88;;;27.16;46.08
71559;BME280;59382;43.852;25.952;2023-08-17T00:14:51;101254.88;;;27.15;45.93
71559;BME280;59382;43.852;25.952;2023-08-17T00:17:16;101247.78;;;27.09;46.07
71559;BME280;59382;43.852;25.952;2023-08-17T00:19:42;101230.84;;;26.97;46.18
71559;BME280;59382;43.852;25.952;2023-08-17T00:22:07;101243.78;;;27.02;46.28
71559;BME280;59382;43.852;25.952;2023-08-17T00:24:33;101236.41;;;26.97;46.00
71559;BME280;59382;43.852;25.952;2023-08-17T00:26:59;101241.41;;;26.95;45.98
71559;BME280;59382;43.852;25.952;2023-08-17T00:29:24;101230.47;;;26.90;45.86
71559;BME280;59382;43.852;25.952;2023-08-17T00:31:51;101215.06;;;26.84;46.20
71559;BME280;59382;43.852;25.952;2023-08-17T00:34:18;101241.53;;;27.04;46.07
71559;BME280;59382;43.852;25.952;2023-08-17T00:36:43;101243.34;;;27.08;45.92
71559;BME280;59382;43.852;25.952;2023-08-17T00:39:09;101240.94;;;27.07;45.71
71559;BME280;59382;43.852;25.952;2023-08-17T00:41:34;101236.19;;;27.07;46.08
71559;BME280;59382;43.852;25.952;2023-08-17T00:44:00;101246.03;;;27.13;45.78
71559;BME280;59382;43.852;25.952;2023-08-17T00:46:26;101235.03;;;27.08;45.96
71559;BME280;59382;43.852;25.952;2023-08-17T00:48:54;101231.66;;;27.11;46.10
71559;BME280;59382;43.852;25.952;2023-08-17T00:51:22;101239.88;;;27.16;45.90
71559;BME280;59382;43.852;25.952;2023-08-17T00:53:50;101230.16;;;27.05;45.89
71559;BME280;59382;43.852;25.952;2023-08-17T00:56:16;101236.50;;;27.06;45.86
71559;BME280;59382;43.852;25.952;2023-08-17T00:58:42;101221.72;;;26.97;46.08
71559;BME280;59382;43.852;25.952;2023-08-17T01:01:08;101223.88;;;27.00;46.13
71559;BME280;59382;43.852;25.952;2023-08-17T01:03:34;101202.31;;;26.83;46.10
71559;BME280;59382;43.852;25.952;2023-08-17T01:06:00;101221.94;;;27.00;46.27
71559;BME280;59382;43.852;25.952;2023-08-17T01:08:29;101234.16;;;26.99;45.99
71559;BME280;59382;43.852;25.952;2023-08-17T01:11:29;101232.59;;;26.93;46.23
71559;BME280;59382;43.852;25.952;2023-08-17T01:14:23;101229.63;;;26.90;46.29
71559;BME280;59382;43.852;25.952;2023-08-17T01:17:02;101199.25;;;26.71;46.24
71559;BME280;59382;43.852;25.952;2023-08-17T01:19:29;101234.22;;;26.80;46.11
71559;BME280;59382;43.852;25.952;2023-08-17T01:22:00;101231.25;;;26.77;46.09
71559;BME280;59382;43.852;25.952;2023-08-17T01:24:26;101220.28;;;26.72;46.13
71559;BME280;59382;43.852;25.952;2023-08-17T01:26:52;101225.22;;;26.75;46.54
71559;BME280;59382;43.852;25.952;2023-08-17T01:29:18;101229.00;;;26.79;46.42
71559;BME280;59382;43.852;25.952;2023-08-17T01:34:24;101221.22;;;26.81;46.29
71559;BME280;59382;43.852;25.952;2023-08-17T01:36:57;101216.69;;;26.85;46.43
71559;BME280;59382;43.852;25.952;2023-08-17T01:39:27;101231.47;;;26.94;46.20
71559;BME280;59382;43.852;25.952;2023-08-17T01:41:55;101232.78;;;26.97;46.19
71559;BME280;59382;43.852;25.952;2023-08-17T01:44:22;101241.31;;;27.00;46.25
71559;BME280;59382;43.852;25.952;2023-08-17T01:46:48;101220.41;;;26.94;46.16
71559;BME280;59382;43.852;25.952;2023-08-17T01:49:14;101225.84;;;26.99;45.89
71559;BME280;59382;43.852;25.952;2023-08-17T01:51:39;101231.25;;;27.04;45.76
71559;BME280;59382;43.852;25.952;2023-08-17T01:54:05;101228.63;;;26.99;46.27
71559;BME280;59382;43.852;25.952;2023-08-17T01:56:31;101234.56;;;27.06;45.90
71559;BME280;59382;43.852;25.952;2023-08-17T01:58:56;101229.00;;;27.06;45.90
71559;BME280;59382;43.852;25.952;2023-08-17T02:01:22;101234.56;;;27.06;45.92
71559;BME280;59382;43.852;25.952;2023-08-17T02:03:47;101228.19;;;27.06;46.07
71559;BME280;59382;43.852;25.952;2023-08-17T02:06:13;101230.63;;;27.07;46.12
71559;BME280;59382;43.852;25.952;2023-08-17T02:08:38;101230.03;;;27.10;45.90
71559;BME280;59382;43.852;25.952;2023-08-17T02:11:04;101213.00;;;27.03;46.07
71559;BME280;59382;43.852;25.952;2023-08-17T02:13:29;101216.69;;;27.12;45.69
71559;BME280;59382;43.852;25.952;2023-08-17T02:15:55;101213.84;;;27.04;45.75
71559;BME280;59382;43.852;25.952;2023-08-17T02:18:20;101218.41;;;27.08;45.66
71559;BME280;59382;43.852;25.952;2023-08-17T02:20:46;101221.63;;;27.15;45.76
71559;BME280;59382;43.852;25.952;2023-08-17T02:23:11;101226.53;;;27.18;45.79
71559;BME280;59382;43.852;25.952;2023-08-17T02:25:38;101210.25;;;27.03;45.90
71559;BME280;59382;43.852;25.952;2023-08-17T02:28:04;101225.50;;;27.14;46.42
71559;BME280;59382;43.852;25.952;2023-08-17T02:30:30;101227.78;;;27.12;46.66
71559;BME280;59382;43.852;25.952;2023-08-17T02:32:55;101234.94;;;27.13;46.81
71559;BME280;59382;43.852;25.952;2023-08-17T02:35:21;101235.78;;;27.14;47.40
71559;BME280;59382;43.852;25.952;2023-08-17T02:37:46;101223.56;;;27.01;47.47
71559;BME280;59382;43.852;25.952;2023-08-17T02:40:12;101231.78;;;27.06;47.80
71559;BME280;59382;43.852;25.952;2023-08-17T02:42:37;101230.53;;;26.99;47.98
71559;BME280;59382;43.852;25.952;2023-08-17T02:45:06;101234.75;;;26.96;47.79
71559;BME280;59382;43.852;25.952;2023-08-17T02:47:31;101228.69;;;26.94;48.34
71559;BME280;59382;43.852;25.952;2023-08-17T02:49:57;101242.16;;;27.01;48.34
71559;BME280;59382;43.852;25.952;2023-08-17T02:52:22;101241.31;;;27.00;48.20
71559;BME280;59382;43.852;25.952;2023-08-17T02:54:48;101241.94;;;26.97;48.25
71559;BME280;59382;43.852;25.952;2023-08-17T02:57:14;101246.03;;;27.00;48.31
71559;BME280;59382;43.852;25.952;2023-08-17T02:59:39;101236.63;;;27.01;48.37
71559;BME280;59382;43.852;25.952;2023-08-17T03:02:04;101237.41;;;27.01;47.97
71559;BME280;59382;43.852;25.952;2023-08-17T03:04:30;101228.19;;;26.92;47.90
71559;BME280;59382;43.852;25.952;2023-08-17T03:06:56;101238.63;;;26.95;47.78
71559;BME280;59382;43.852;25.952;2023-08-17T03:09:21;101228.78;;;26.89;48.14
71559;BME280;59382;43.852;25.952;2023-08-17T03:11:46;101232.91;;;26.92;47.34
71559;BME280;59382;43.852;25.952;2023-08-17T03:14:12;101235.25;;;26.84;47.62
71559;BME280;59382;43.852;25.952;2023-08-17T03:16:37;101234.53;;;26.79;48.02
71559;BME280;59382;43.852;25.952;2023-08-17T03:19:03;101226.94;;;26.71;48.46
71559;BME280;59382;43.852;25.952;2023-08-17T03:21:29;101240.06;;;26.79;48.48
71559;BME280;59382;43.852;25.952;2023-08-17T03:23:54;101227.75;;;26.71;48.61
71559;BME280;59382;43.852;25.952;2023-08-17T03:26:20;101241.69;;;26.80;48.88
71559;BME280;59382;43.852;25.952;2023-08-17T03:28:46;101235.75;;;26.73;49.14
71559;BME280;59382;43.852;25.952;2023-08-17T03:31:11;101243.97;;;26.78;49.01
71559;BME280;59382;43.852;25.952;2023-08-17T03:33:37;101231.66;;;26.70;49.09
71559;BME280;59382;43.852;25.952;2023-08-17T03:36:03;101240.69;;;26.76;48.95
71559;BME280;59382;43.852;25.952;2023-08-17T03:38:29;101248.38;;;26.79;49.29
71559;BME280;59382;43.852;25.952;2023-08-17T03:40:55;101245.59;;;26.79;49.13
71559;BME280;59382;43.852;25.952;2023-08-17T03:43:21;101245.59;;;26.79;48.84
71559;BME280;59382;43.852;25.952;2023-08-17T03:45:47;101244.59;;;26.75;48.83
71559;BME280;59382;43.852;25.952;2023-08-17T03:48:12;101241.28;;;26.73;49.19
71559;BME280;59382;43.852;25.952;2023-08-17T03:50:37;101247.25;;;26.80;49.13
71559;BME280;59382;43.852;25.952;2023-08-17T03:53:03;101250.94;;;26.75;49.53
71559;BME280;59382;43.852;25.952;2023-08-17T03:55:29;101243.53;;;26.71;49.49
71559;BME280;59382;43.852;25.952;2023-08-17T03:57:54;101252.16;;;26.69;49.21
71559;BME280;59382;43.852;25.952;2023-08-17T04:00:20;101240.88;;;26.66;49.27
71559;BME280;59382;43.852;25.952;2023-08-17T04:02:45;101241.78;;;26.61;48.83
71559;BME280;59382;43.852;25.952;2023-08-17T04:05:11;101260.31;;;26.61;48.95
71559;BME280;59382;43.852;25.952;2023-08-17T04:07:36;101251.06;;;26.52;49.00
71559;BME280;59382;43.852;25.952;2023-08-17T04:10:04;101241.81;;;26.43;48.92
71559;BME280;59382;43.852;25.952;2023-08-17T04:12:30;101251.97;;;26.47;48.74
71559;BME280;59382;43.852;25.952;2023-08-17T04:14:56;101262.75;;;26.49;48.55
71559;BME280;59382;43.852;25.952;2023-08-17T04:17:21;101244.59;;;26.43;48.43
71559;BME280;59382;43.852;25.952;2023-08-17T04:19:47;101250.34;;;26.46;48.22
71559;BME280;59382;43.852;25.952;2023-08-17T04:22:12;101257.81;;;26.46;47.96
71559;BME280;59382;43.852;25.952;2023-08-17T04:24:38;101251.03;;;26.38;47.87
71559;BME280;59382;43.852;25.952;2023-08-17T04:27:03;101257.31;;;26.44;47.68
71559;BME280;59382;43.852;25.952;2023-08-17T04:29:30;101252.38;;;26.41;47.88
71559;BME280;59382;43.852;25.952;2023-08-17T04:31:56;101264.56;;;26.40;47.69
71559;BME280;59382;43.852;25.952;2023-08-17T04:34:21;101258.59;;;26.33;47.79
71559;BME280;59382;43.852;25.952;2023-08-17T04:36:47;101264.97;;;26.33;47.68
71559;BME280;59382;43.852;25.952;2023-08-17T04:39:12;101269.13;;;26.31;47.84
71559;BME280;59382;43.852;25.952;2023-08-17T04:41:38;101260.66;;;26.27;47.88
71559;BME280;59382;43.852;25.952;2023-08-17T04:44:04;101255.19;;;26.22;47.86
71559;BME280;59382;43.852;25.952;2023-08-17T04:46:30;101261.44;;;26.28;48.06
71559;BME280;59382;43.852;25.952;2023-08-17T04:48:55;101257.66;;;26.24;47.76
71559;BME280;59382;43.852;25.952;2023-08-17T04:51:21;101269.66;;;26.33;48.09
71559;BME280;59382;43.852;25.952;2023-08-17T04:53:46;101262.69;;;26.35;47.92
71559;BME280;59382;43.852;25.952;2023-08-17T04:56:12;101270.69;;;26.37;47.82
71559;BME280;59382;43.852;25.952;2023-08-17T04:58:37;101272.38;;;26.38;47.95
71559;BME280;59382;43.852;25.952;2023-08-17T05:01:02;101277.28;;;26.41;47.71
71559;BME280;59382;43.852;25.952;2023-08-17T05:03:53;101272.78;;;26.45;47.74
71559;BME280;59382;43.852;25.952;2023-08-17T05:06:18;101270.03;;;26.45;47.96
71559;BME280;59382;43.852;25.952;2023-08-17T05:08:44;101270.56;;;26.47;48.02
71559;BME280;59382;43.852;25.952;2023-08-17T05:11:09;101269.09;;;26.49;48.17
71559;BME280;59382;43.852;25.952;2023-08-17T05:13:35;101268.72;;;26.56;47.87
71559;BME280;59382;43.852;25.952;2023-08-17T05:16:01;101275.28;;;26.60;47.92
71559;BME280;59382;43.852;25.952;2023-08-17T05:18:26;101264.00;;;26.56;47.58
71559;BME280;59382;43.852;25.952;2023-08-17T05:20:52;101272.00;;;26.58;47.79
71559;BME280;59382;43.852;25.952;2023-08-17T05:23:17;101282.59;;;26.69;47.59
71559;BME280;59382;43.852;25.952;2023-08-17T05:25:46;101281.69;;;26.74;48.02
71559;BME280;59382;43.852;25.952;2023-08-17T05:28:12;101272.88;;;26.72;47.86
71559;BME280;59382;43.852;25.952;2023-08-17T05:30:38;101275.75;;;26.80;47.82
71559;BME280;59382;43.852;25.952;2023-08-17T05:33:03;101265.53;;;26.81;47.78
71559;BME280;59382;43.852;25.952;2023-08-17T05:35:29;101268.00;;;26.96;47.81
71559;BME280;59382;43.852;25.952;2023-08-17T05:37:54;101268.50;;;27.12;48.20
71559;BME280;59382;43.852;25.952;2023-08-17T05:40:20;101279.06;;;27.23;48.21
71559;BME280;59382;43.852;25.952;2023-08-17T05:42:45;101269.75;;;27.33;48.31
71559;BME280;59382;43.852;25.952;2023-08-17T05:45:11;101261.53;;;27.41;48.35
71559;BME280;59382;43.852;25.952;2023-08-17T05:47:36;101265.13;;;27.55;48.55
71559;BME280;59382;43.852;25.952;2023-08-17T05:50:02;101252.16;;;27.64;48.11
71559;BME280;59382;43.852;25.952;2023-08-17T05:52:27;101255.53;;;27.88;48.14
71559;BME280;59382;43.852;25.952;2023-08-17T05:54:53;101240.41;;;27.94;47.98
71559;BME280;59382;43.852;25.952;2023-08-17T05:57:18;101261.81;;;28.24;47.59
71559;BME280;59382;43.852;25.952;2023-08-17T05:59:44;101253.13;;;28.39;47.77
71559;BME280;59382;43.852;25.952;2023-08-17T06:02:09;101255.53;;;28.54;47.40
71559;BME280;59382;43.852;25.952;2023-08-17T06:04:35;101246.25;;;28.59;47.07
71559;BME280;59382;43.852;25.952;2023-08-17T06:07:01;101255.00;;;28.75;47.11
71559;BME280;59382;43.852;25.952;2023-08-17T06:09:26;101246.56;;;28.88;46.83
71559;BME280;59382;43.852;25.952;2023-08-17T06:11:52;101238.09;;;29.02;46.56
71559;BME280;59382;43.852;25.952;2023-08-17T06:14:17;101244.28;;;29.21;46.38
71559;BME280;59382;43.852;25.952;2023-08-17T06:16:43;101247.06;;;29.38;45.67
71559;BME280;59382;43.852;25.952;2023-08-17T06:19:08;101256.94;;;29.61;45.53
71559;BME280;59382;43.852;25.952;2023-08-17T06:21:34;101252.44;;;29.82;45.08
71559;BME280;59382;43.852;25.952;2023-08-17T06:23:59;101254.03;;;30.00;44.51
71559;BME280;59382;43.852;25.952;2023-08-17T06:26:25;101251.41;;;30.12;44.33
71559;BME280;59382;43.852;25.952;2023-08-17T06:28:50;101256.34;;;30.32;43.97
71559;BME280;59382;43.852;25.952;2023-08-17T06:31:16;101260.25;;;30.48;43.43
71559;BME280;59382;43.852;25.952;2023-08-17T06:33:42;101260.38;;;30.60;43.65
71559;BME280;59382;43.852;25.952;2023-08-17T06:36:07;101256.56;;;30.73;42.79
71559;BME280;59382;43.852;25.952;2023-08-17T06:38:33;101257.25;;;30.70;42.32
71559;BME280;59382;43.852;25.952;2023-08-17T06:40:58;101259.56;;;30.68;42.95
71559;BME280;59382;43.852;25.952;2023-08-17T06:43:24;101263.84;;;30.74;42.68
71559;BME280;59382;43.852;25.952;2023-08-17T06:45:49;101254.94;;;30.72;42.17
71559;BME280;59382;43.852;25.952;2023-08-17T06:48:15;101278.34;;;30.88;42.49
71559;BME280;59382;43.852;25.952;2023-08-17T06:50:41;101265.69;;;30.99;42.37
71559;BME280;59382;43.852;25.952;2023-08-17T06:53:07;101254.06;;;30.97;42.22
71559;BME280;59382;43.852;25.952;2023-08-17T06:55:32;101268.06;;;31.18;41.92
71559;BME280;59382;43.852;25.952;2023-08-17T06:57:58;101278.03;;;31.27;41.83
71559;BME280;59382;43.852;25.952;2023-08-17T07:00:24;101257.38;;;31.28;41.67
71559;BME280;59382;43.852;25.952;2023-08-17T07:02:50;101265.69;;;31.37;41.71
71559;BME280;59382;43.852;25.952;2023-08-17T07:05:18;101270.34;;;31.53;41.64
71559;BME280;59382;43.852;25.952;2023-08-17T07:07:43;101268.75;;;31.73;41.24
71559;BME280;59382;43.852;25.952;2023-08-17T07:10:10;101271.50;;;31.81;40.74
71559;BME280;59382;43.852;25.952;2023-08-17T07:12:38;101263.75;;;31.87;40.96
71559;BME280;59382;43.852;25.952;2023-08-17T07:15:05;101283.22;;;31.95;40.50
71559;BME280;59382;43.852;25.952;2023-08-17T07:17:31;101273.41;;;31.89;40.44
71559;BME280;59382;43.852;25.952;2023-08-17T07:19:57;101274.44;;;31.85;40.82
71559;BME280;59382;43.852;25.952;2023-08-17T07:22:22;101268.50;;;31.86;40.63
71559;BME280;59382;43.852;25.952;2023-08-17T07:24:48;101274.75;;;31.83;40.21
71559;BME280;59382;43.852;25.952;2023-08-17T07:27:13;101267.22;;;31.84;40.60
71559;BME280;59382;43.852;25.952;2023-08-17T07:29:39;101272.59;;;31.89;40.64
71559;BME280;59382;43.852;25.952;2023-08-17T07:32:05;101273.81;;;32.00;40.12
71559;BME280;59382;43.852;25.952;2023-08-17T07:34:30;101272.31;;;32.02;39.80
71559;BME280;59382;43.852;25.952;2023-08-17T07:36:58;101278.28;;;32.13;40.24
71559;BME280;59382;43.852;25.952;2023-08-17T07:39:23;101287.56;;;32.26;39.97
71559;BME280;59382;43.852;25.952;2023-08-17T07:41:50;101274.03;;;32.28;39.68
71559;BME280;59382;43.852;25.952;2023-08-17T07:44:16;101270.47;;;32.27;40.14
71559;BME280;59382;43.852;25.952;2023-08-17T07:46:41;101265.97;;;32.35;39.92
71559;BME280;59382;43.852;25.952;2023-08-17T07:49:07;101278.13;;;32.51;39.45
71559;BME280;59382;43.852;25.952;2023-08-17T07:51:32;101266.03;;;32.47;39.15
71559;BME280;59382;43.852;25.952;2023-08-17T07:54:02;101276.50;;;32.50;39.66
71559;BME280;59382;43.852;25.952;2023-08-17T07:56:27;101267.09;;;32.34;39.70
71559;BME280;59382;43.852;25.952;2023-08-17T07:58:53;101258.47;;;32.27;39.62
71559;BME280;59382;43.852;25.952;2023-08-17T08:01:19;101262.88;;;32.28;39.87
71559;BME280;59382;43.852;25.952;2023-08-17T08:03:45;101270.13;;;32.29;39.74
71559;BME280;59382;43.852;25.952;2023-08-17T08:06:10;101261.25;;;32.27;39.89
71559;BME280;59382;43.852;25.952;2023-08-17T08:08:36;101259.56;;;32.34;40.04
71559;BME280;59382;43.852;25.952;2023-08-17T08:11:01;101256.84;;;32.26;39.65
71559;BME280;59382;43.852;25.952;2023-08-17T08:13:29;101269.44;;;32.32;39.60
71559;BME280;59382;43.852;25.952;2023-08-17T08:15:55;101271.56;;;32.35;39.52
71559;BME280;59382;43.852;25.952;2023-08-17T08:18:20;101252.94;;;32.39;39.78
71559;BME280;59382;43.852;25.952;2023-08-17T08:20:46;101260.44;;;32.47;39.36
71559;BME280;59382;43.852;25.952;2023-08-17T08:23:11;101229.22;;;32.45;39.39
71559;BME280;59382;43.852;25.952;2023-08-17T08:25:37;101251.47;;;32.53;39.10
71559;BME280;59382;43.852;25.952;2023-08-17T08:28:03;101257.69;;;32.59;39.05
71559;BME280;59382;43.852;25.952;2023-08-17T08:30:28;101249.50;;;32.54;39.26
71559;BME280;59382;43.852;25.952;2023-08-17T08:32:54;101257.91;;;32.66;39.04
71559;BME280;59382;43.852;25.952;2023-08-17T08:35:23;101247.19;;;32.68;38.83
71559;BME280;59382;43.852;25.952;2023-08-17T08:37:50;101246.53;;;32.83;39.15
71559;BME280;59382;43.852;25.952;2023-08-17T08:40:17;101251.72;;;32.93;38.64
71559;BME280;59382;43.852;25.952;2023-08-17T08:42:43;101253.91;;;32.99;38.41
71559;BME280;59382;43.852;25.952;2023-08-17T08:45:09;101243.78;;;32.95;38.56
71559;BME280;59382;43.852;25.952;2023-08-17T08:47:36;101236.44;;;32.90;38.39
71559;BME280;59382;43.852;25.952;2023-08-17T08:50:04;101240.75;;;33.00;38.31
71559;BME280;59382;43.852;25.952;2023-08-17T08:52:34;101250.56;;;33.06;37.98
71559;BME280;59382;43.852;25.952;2023-08-17T08:57:34;101221.66;;;32.90;38.15
71559;BME280;59382;43.852;25.952;2023-08-17T08:59:59;101232.59;;;32.95;38.55
71559;BME280;59382;43.852;25.952;2023-08-17T09:02:25;101238.88;;;32.92;38.39
71559;BME280;59382;43.852;25.952;2023-08-17T09:04:51;101231.19;;;32.89;38.05
71559;BME280;59382;43.852;25.952;2023-08-17T09:07:18;101217.66;;;32.79;38.32
71559;BME280;59382;43.852;25.952;2023-08-17T09:09:45;101228.97;;;32.82;38.33
71559;BME280;59382;43.852;25.952;2023-08-17T09:12:10;101211.56;;;32.77;37.93
71559;BME280;59382;43.852;25.952;2023-08-17T09:14:36;101210.81;;;32.88;37.96
71559;BME280;59382;43.852;25.952;2023-08-17T09:17:03;101223.28;;;33.03;37.54
71559;BME280;59382;43.852;25.952;2023-08-17T09:19:31;101203.72;;;33.03;37.49
71559;BME280;59382;43.852;25.952;2023-08-17T09:21:57;101219.56;;;33.11;37.09
71559;BME280;59382;43.852;25.952;2023-08-17T09:24:22;101196.03;;;33.12;36.88
71559;BME280;59382;43.852;25.952;2023-08-17T09:26:49;101198.13;;;33.15;37.05
71559;BME280;59382;43.852;25.952;2023-08-17T09:29:19;101210.22;;;33.19;36.27
71559;BME280;59382;43.852;25.952;2023-08-17T09:31:46;101205.09;;;33.21;36.80
71559;BME280;59382;43.852;25.952;2023-08-17T09:34:14;101191.56;;;33.23;36.54
71559;BME280;59382;43.852;25.952;2023-08-17T09:36:41;101194.63;;;33.18;36.81
71559;BME280;59382;43.852;25.952;2023-08-17T09:39:06;101197.41;;;33.18;36.10
71559;BME280;59382;43.852;25.952;2023-08-17T09:41:38;101195.75;;;33.17;36.35
71559;BME280;59382;43.852;25.952;2023-08-17T09:44:05;101182.38;;;33.22;35.86
71559;BME280;59382;43.852;25.952;2023-08-17T09:46:31;101189.59;;;33.23;35.91
71559;BME280;59382;43.852;25.952;2023-08-17T09:48:57;101188.19;;;33.17;36.10
71559;BME280;59382;43.852;25.952;2023-08-17T09:51:23;101177.63;;;32.99;36.37
71559;BME280;59382;43.852;25.952;2023-08-17T09:53:51;101187.06;;;33.06;36.12
71559;BME280;59382;43.852;25.952;2023-08-17T09:56:21;101189.94;;;33.10;35.83
71559;BME280;59382;43.852;25.952;2023-08-17T09:58:47;101178.56;;;33.03;35.88
71559;BME280;59382;43.852;25.952;2023-08-17T10:01:13;101186.94;;;33.03;35.91
71559;BME280;59382;43.852;25.952;2023-08-17T10:03:43;101177.84;;;33.06;35.55
71559;BME280;59382;43.852;25.952;2023-08-17T10:06:12;101173.38;;;33.17;35.50
71559;BME280;59382;43.852;25.952;2023-08-17T10:08:47;101181.56;;;33.22;35.47
71559;BME280;59382;43.852;25.952;2023-08-17T10:11:16;101166.88;;;33.13;34.93
71559;BME280;59382;43.852;25.952;2023-08-17T10:14:02;101185.25;;;33.26;34.86
71559;BME280;59382;43.852;25.952;2023-08-17T10:16:45;101164.97;;;33.29;34.54
71559;BME280;59382;43.852;25.952;2023-08-17T10:19:25;101178.19;;;33.40;34.06
71559;BME280;59382;43.852;25.952;2023-08-17T10:22:19;101183.16;;;33.47;34.41
71559;BME280;59382;43.852;25.952;2023-08-17T10:24:46;101176.28;;;33.56;33.81
71559;BME280;59382;43.852;25.952;2023-08-17T10:27:13;101160.19;;;33.53;33.76
71559;BME280;59382;43.852;25.952;2023-08-17T10:29:39;101164.97;;;33.53;33.75
71559;BME280;59382;43.852;25.952;2023-08-17T10:32:12;101159.88;;;33.43;34.07
71559;BME280;59382;43.852;25.952;2023-08-17T10:34:42;101157.19;;;33.46;33.98
71559;BME280;59382;43.852;25.952;2023-08-17T10:37:10;101142.25;;;33.42;33.73
71559;BME280;59382;43.852;25.952;2023-08-17T10:39:44;101149.38;;;33.40;33.54
71559;BME280;59382;43.852;25.952;2023-08-17T10:42:11;101161.59;;;33.47;33.50
71559;BME280;59382;43.852;25.952;2023-08-17T10:44:48;101162.88;;;33.50;32.94
71559;BME280;59382;43.852;25.952;2023-08-17T10:47:28;101160.00;;;33.46;32.52
71559;BME280;59382;43.852;25.952;2023-08-17T10:50:22;101152.66;;;33.42;32.78
71559;BME280;59382;43.852;25.952;2023-08-17T10:52:49;101150.53;;;33.51;32.64
71559;BME280;59382;43.852;25.952;2023-08-17T10:55:35;101167.06;;;33.56;32.28
71559;BME280;59382;43.852;25.952;2023-08-17T10:58:02;101151.31;;;33.51;32.10
71559;BME280;59382;43.852;25.952;2023-08-17T11:00:35;101154.44;;;33.62;32.01
71559;BME280;59382;43.852;25.952;2023-08-17T11:03:23;101145.22;;;33.61;32.02
71559;BME280;59382;43.852;25.952;2023-08-17T11:05:49;101148.69;;;33.70;31.70
71559;BME280;59382;43.852;25.952;2023-08-17T11:08:31;101142.06;;;33.63;31.71
71559;BME280;59382;43.852;25.952;2023-08-17T11:11:02;101154.09;;;33.63;31.68
71559;BME280;59382;43.852;25.952;2023-08-17T11:13:31;101155.63;;;33.61;31.45
71559;BME280;59382;43.852;25.952;2023-08-17T11:16:01;101144.44;;;33.61;31.47
71559;BME280;59382;43.852;25.952;2023-08-17T11:18:27;101145.13;;;33.58;31.51
71559;BME280;59382;43.852;25.952;2023-08-17T11:20:53;101124.88;;;33.49;31.63
71559;BME280;59382;43.852;25.952;2023-08-17T11:23:20;101134.84;;;33.62;31.44
71559;BME280;59382;43.852;25.952;2023-08-17T11:25:57;101123.66;;;33.62;31.86
71559;BME280;59382;43.852;25.952;2023-08-17T11:28:26;101110.66;;;33.54;31.71
71559;BME280;59382;43.852;25.952;2023-08-17T11:31:05;101128.31;;;33.70;31.86
71559;BME280;59382;43.852;25.952;2023-08-17T11:33:32;101136.88;;;33.77;31.38
71559;BME280;59382;43.852;25.952;2023-08-17T11:36:00;101130.22;;;33.81;31.49
71559;BME280;59382;43.852;25.952;2023-08-17T11:38:30;101131.94;;;33.86;31.49
71559;BME280;59382;43.852;25.952;2023-08-17T11:41:05;101120.53;;;33.91;31.63
71559;BME280;59382;43.852;25.952;2023-08-17T11:43:33;101127.50;;;33.97;31.36
71559;BME280;59382;43.852;25.952;2023-08-17T11:46:00;101125.50;;;33.97;31.38
71559;BME280;59382;43.852;25.952;2023-08-17T11:48:27;101119.91;;;33.97;31.13
71559;BME280;59382;43.852;25.952;2023-08-17T11:50:53;101110.75;;;33.85;31.41
71559;BME280;59382;43.852;25.952;2023-08-17T11:53:20;101115.66;;;33.88;31.72
71559;BME280;59382;43.852;25.952;2023-08-17T11:55:46;101104.13;;;33.77;31.46
71559;BME280;59382;43.852;25.952;2023-08-17T11:58:12;101123.38;;;33.79;31.44
71559;BME280;59382;43.852;25.952;2023-08-17T12:00:44;101110.69;;;33.69;31.49
71559;BME280;59382;43.852;25.952;2023-08-17T12:03:13;101104.53;;;33.64;31.68
71559;BME280;59382;43.852;25.952;2023-08-17T12:05:40;101098.75;;;33.57;31.60
71559;BME280;59382;43.852;25.952;2023-08-17T12:08:07;101107.78;;;33.66;31.33
71559;BME280;59382;43.852;25.952;2023-08-17T12:10:33;101098.28;;;33.55;31.20
71559;BME280;59382;43.852;25.952;2023-08-17T12:12:59;101093.63;;;33.47;30.75
71559;BME280;59382;43.852;25.952;2023-08-17T12:15:30;101101.78;;;33.52;30.60
71559;BME280;59382;43.852;25.952;2023-08-17T12:17:59;101106.13;;;33.49;30.62
71559;BME280;59382;43.852;25.952;2023-08-17T12:20:25;101092.00;;;33.46;30.54
71559;BME280;59382;43.852;25.952;2023-08-17T12:22:50;101108.28;;;33.56;30.73
71559;BME280;59382;43.852;25.952;2023-08-17T12:25:16;101110.13;;;33.64;30.42
71559;BME280;59382;43.852;25.952;2023-08-17T12:27:47;101101.09;;;33.70;30.88
71559;BME280;59382;43.852;25.952;2023-08-17T12:30:16;101089.47;;;33.68;30.50
71559;BME280;59382;43.852;25.952;2023-08-17T12:32:48;101093.88;;;33.69;30.68
71559;BME280;59382;43.852;25.952;2023-08-17T12:35:14;101103.91;;;33.70;30.36
71559;BME280;59382;43.852;25.952;2023-08-17T12:37:39;101092.44;;;33.60;30.48
71559;BME280;59382;43.852;25.952;2023-08-17T12:40:05;101108.47;;;33.63;30.35
71559;BME280;59382;43.852;25.952;2023-08-17T12:42:31;101094.56;;;33.51;30.68
71559;BME280;59382;43.852;25.952;2023-08-17T12:44:56;101092.00;;;33.46;31.01